Time,TemperatureF,DewpointF,PressureIn,WindDirection,WindDirectionDegrees,WindSpeedMPH,WindSpeedGustMPH,Humidity,HourlyPrecipIn,Conditions,Clouds,dailyrainin,SoftwareType,DateUTC
2013-09-05 00:01:00,66.0,58.0,29.55,West,275,0.0,0.0,76,0.00,,,-99.99,,2013-09-05 07:01:00,
2013-09-05 00:12:00,66.0,58.0,29.55,West,275,0.0,0.0,76,0.00,,,-99.99,,2013-09-05 07:12:00,
2013-09-05 01:52:00,65.0,58.0,29.54,West,275,0.0,0.0,79,0.00,,,-99.99,,2013-09-05 08:52:00,
2013-09-05 02:11:00,65.0,59.0,29.53,West,275,0.0,0.0,80,0.00,,,-99.99,,2013-09-05 09:11:00,
2013-09-05 02:22:00,65.0,59.0,29.53,West,275,0.0,0.0,80,0.00,,,-99.99,,2013-09-05 09:22:00,
2013-09-05 02:53:00,64.0,58.0,29.52,West,275,0.0,0.0,81,0.00,,,-99.99,,2013-09-05 09:53:00,
2013-09-05 03:12:00,64.0,58.0,29.52,West,275,0.0,0.0,82,0.00,,,-99.99,,2013-09-05 10:12:00,
2013-09-05 03:23:00,64.0,58.0,29.52,West,275,0.0,0.0,82,0.00,,,-99.99,,2013-09-05 10:23:00,
2013-09-05 03:32:00,64.0,58.0,29.52,West,275,0.0,0.0,82,0.00,,,-99.99,,2013-09-05 10:32:00,
2013-09-05 04:12:00,63.0,57.0,29.52,West,275,0.0,0.0,82,0.00,,,-99.99,,2013-09-05 11:12:00,
2013-09-05 04:21:00,63.0,57.0,29.52,West,275,0.0,0.0,82,0.00,,,-99.99,,2013-09-05 11:21:00,
2013-09-05 04:52:00,63.0,58.0,29.52,West,275,0.0,0.0,83,0.00,,,-99.99,,2013-09-05 11:52:00,
2013-09-05 05:12:00,63.0,58.0,29.52,West,275,0.0,0.0,84,0.00,,,-99.99,,2013-09-05 12:12:00,
2013-09-05 05:21:00,63.0,58.0,29.52,West,275,0.0,0.0,84,0.00,,,-99.99,,2013-09-05 12:21:00,
2013-09-05 05:52:00,63.0,58.0,29.52,West,275,0.0,0.0,84,0.00,,,-99.99,,2013-09-05 12:52:00,
2013-09-05 06:21:00,63.0,58.0,29.52,West,275,0.0,0.0,85,0.00,,,-99.99,,2013-09-05 13:21:00,
2013-09-05 06:53:00,63.0,58.0,29.53,West,275,0.0,0.0,85,0.00,,,-99.99,,2013-09-05 13:53:00,
2013-09-05 07:01:00,63.0,58.0,29.53,West,275,0.0,0.0,85,0.00,,,-99.99,,2013-09-05 14:01:00,
2013-09-05 07:12:00,63.0,58.0,29.53,West,275,0.0,0.0,85,0.00,,,-99.99,,2013-09-05 14:12:00,
2013-09-05 07:52:00,64.0,59.0,29.54,West,275,0.0,0.0,84,0.00,,,-99.99,,2013-09-05 14:52:00,
2013-09-05 08:02:00,64.0,59.0,29.54,West,275,0.0,0.0,84,0.00,,,-99.99,,2013-09-05 15:02:00,
2013-09-05 08:11:00,64.0,59.0,29.54,West,275,0.0,0.0,84,0.00,,,-99.99,,2013-09-05 15:11:00,
2013-09-05 09:13:00,68.0,60.0,29.55,NNE,15,0.0,1.0,76,0.00,,,-99.99,,2013-09-05 16:13:00,
2013-09-05 09:24:00,68.0,60.0,29.55,NNE,15,0.0,1.0,76,0.00,,,-99.99,,2013-09-05 16:24:00,
2013-09-05 09:32:00,68.0,60.0,29.55,NNE,15,0.0,1.0,76,0.00,,,-99.99,,2013-09-05 16:32:00,
2013-09-05 10:52:00,77.0,62.0,29.56,WSW,238,0.0,4.0,60,0.00,,,-99.99,,2013-09-05 17:52:00,
2013-09-05 11:02:00,77.0,62.0,29.56,WSW,238,0.0,4.0,60,0.00,,,-99.99,,2013-09-05 18:02:00,
2013-09-05 11:12:00,77.0,62.0,29.56,WSW,238,0.0,4.0,60,0.00,,,-99.99,,2013-09-05 18:12:00,
2013-09-05 12:11:00,83.0,62.0,29.56,WSW,249,1.0,4.0,50,0.00,,,-99.99,,2013-09-05 19:11:00,
2013-09-05 12:21:00,83.0,62.0,29.56,WSW,249,1.0,4.0,50,0.00,,,-99.99,,2013-09-05 19:21:00,
2013-09-05 12:52:00,84.0,62.0,29.56,South,188,2.0,8.0,47,0.00,,,-99.99,,2013-09-05 19:52:00,
2013-09-05 13:11:00,86.0,62.0,29.56,West,273,2.0,8.0,44,0.00,,,-99.99,,2013-09-05 20:11:00,
2013-09-05 13:22:00,86.0,62.0,29.56,West,273,2.0,8.0,44,0.00,,,-99.99,,2013-09-05 20:22:00,
2013-09-05 13:52:00,86.0,61.0,29.55,SSW,209,1.0,6.0,43,0.00,,,-99.99,,2013-09-05 20:52:00,
2013-09-05 14:02:00,86.0,61.0,29.55,SSW,209,1.0,6.0,43,0.00,,,-99.99,,2013-09-05 21:02:00,
2013-09-05 14:11:00,86.0,61.0,29.55,SSW,209,1.0,6.0,43,0.00,,,-99.99,,2013-09-05 21:11:00,
2013-09-05 16:12:00,86.0,57.0,29.52,West,260,1.0,9.0,38,0.00,,,-99.99,,2013-09-05 23:12:00,
2013-09-05 16:22:00,86.0,57.0,29.52,West,260,1.0,9.0,38,0.00,,,-99.99,,2013-09-05 23:22:00,
2013-09-05 16:42:00,85.0,59.0,29.52,WNW,283,1.0,6.0,41,0.00,,,-99.99,,2013-09-05 23:42:00,
2013-09-05 16:53:00,85.0,59.0,29.52,WNW,283,1.0,6.0,41,0.00,,,-99.99,,2013-09-05 23:53:00,
2013-09-05 17:22:00,84.0,59.0,29.51,South,177,0.0,5.0,43,0.00,,,-99.99,,2013-09-06 00:22:00,
2013-09-05 17:32:00,84.0,59.0,29.51,South,177,0.0,5.0,43,0.00,,,-99.99,,2013-09-06 00:32:00,
2013-09-05 18:52:00,81.0,59.0,29.50,South,189,0.0,1.0,48,0.00,,,-99.99,,2013-09-06 01:52:00,
2013-09-05 19:02:00,81.0,59.0,29.50,South,189,0.0,1.0,48,0.00,,,-99.99,,2013-09-06 02:02:00,
2013-09-05 19:11:00,81.0,59.0,29.50,South,189,0.0,1.0,48,0.00,,,-99.99,,2013-09-06 02:11:00,
2013-09-05 19:52:00,77.0,60.0,29.50,West,273,0.0,3.0,56,0.00,,,-99.99,,2013-09-06 02:52:00,
2013-09-05 20:11:00,73.0,60.0,29.50,West,275,1.0,7.0,63,0.00,,,-99.99,,2013-09-06 03:11:00,
2013-09-05 20:22:00,73.0,60.0,29.50,West,275,1.0,7.0,63,0.00,,,-99.99,,2013-09-06 03:22:00,
2013-09-05 20:55:00,70.0,59.0,29.52,West,272,0.0,1.0,67,0.00,,,-99.99,,2013-09-06 03:55:00,
2013-09-05 21:13:00,69.0,59.0,29.52,West,272,0.0,0.0,70,0.00,,,-99.99,,2013-09-06 04:13:00,
2013-09-05 21:23:00,69.0,59.0,29.52,West,272,0.0,0.0,70,0.00,,,-99.99,,2013-09-06 04:23:00,
2013-09-05 21:54:00,68.0,59.0,29.53,West,272,0.0,1.0,72,0.00,,,-99.99,,2013-09-06 04:54:00,
2013-09-05 22:12:00,67.0,58.0,29.53,West,272,0.0,0.0,73,0.00,,,-99.99,,2013-09-06 05:12:00,
2013-09-05 22:23:00,67.0,58.0,29.53,West,272,0.0,0.0,73,0.00,,,-99.99,,2013-09-06 05:23:00,
2013-09-05 22:52:00,67.0,58.0,29.53,West,272,0.0,0.0,74,0.00,,,-99.99,,2013-09-06 05:52:00,
2013-09-05 23:02:00,67.0,58.0,29.53,West,272,0.0,0.0,74,0.00,,,-99.99,,2013-09-06 06:02:00,
2013-09-05 23:11:00,67.0,58.0,29.53,West,272,0.0,0.0,74,0.00,,,-99.99,,2013-09-06 06:11:00,
2013-09-05 23:53:00,66.0,59.0,29.54,West,272,0.0,0.0,78,0.00,,,-99.99,,2013-09-06 06:53:00,